Lossiemouth, United Kingdom
Current Conditions -  °F | °C
As of 8:50 PM on Saturday 20 Dec 2014 (Local Time) from EGQS Reporting Station
Broken Clouds Broken Clouds  
Wind Chill: 32°   Ceiling: 13000
Heat Index: 39°   Visibility: 6mi
Dew Point: 34°   Wind: 12mph
Humidity: 81%   Direction: 240°WSW
Pressure: 30.06"   Gusts: NA
Location:  57.72°N, 3.28°W
Report Text: EGQS 202050Z 24010KT 9999 FEW045 SCT100 BKN130 04/01 Q1018 BLU
Loading
Personal Weather Stations






























Interactive Weather Map New forecast layout! Learn more

10-Day Weather Forecast

Advertisements
Track Severe Weather on mobile